createdAt,value
2019-02-28T00:01:02.144Z,62.40
2019-02-28T00:03:31.135Z,62.30
2019-02-28T00:06:00.090Z,62.50
2019-02-28T00:08:29.066Z,63.20
2019-02-28T00:10:58.122Z,63.70
2019-02-28T00:13:27.082Z,63.90
2019-02-28T00:15:56.134Z,64.00
2019-02-28T00:18:25.092Z,64.20
2019-02-28T00:20:54.064Z,63.90
2019-02-28T00:23:23.022Z,63.20
2019-02-28T00:25:52.087Z,64.00
2019-02-28T00:28:23.091Z,63.90
2019-02-28T00:30:51.770Z,64.40
2019-02-28T00:33:20.738Z,64.20
2019-02-28T00:35:49.714Z,64.00
2019-02-28T00:38:18.666Z,64.20
2019-02-28T00:40:47.638Z,64.30
2019-02-28T00:43:16.594Z,64.10
2019-02-28T00:45:45.571Z,64.10
2019-02-28T00:48:14.533Z,64.20
2019-02-28T00:50:43.513Z,64.10
2019-02-28T00:53:12.551Z,64.00
2019-02-28T00:55:41.516Z,64.60
2019-02-28T00:58:10.489Z,64.10
2019-02-28T01:00:39.470Z,64.40
2019-02-28T01:03:08.438Z,64.00
2019-02-28T01:05:37.501Z,63.90
2019-02-28T01:08:06.567Z,64.50
2019-02-28T01:10:39.296Z,64.30
2019-02-28T01:13:06.272Z,64.20
2019-02-28T01:15:35.295Z,64.50
2019-02-28T01:18:04.388Z,64.30
2019-02-28T01:20:33.355Z,65.40
2019-02-28T01:23:02.305Z,65.20
2019-02-28T01:25:31.275Z,64.40
2019-02-28T01:28:00.235Z,65.00
2019-02-28T01:30:29.202Z,64.20
2019-02-28T01:32:58.158Z,64.50
2019-02-28T01:35:27.138Z,65.00
2019-02-28T01:37:56.096Z,65.00
2019-02-28T01:40:25.078Z,65.90
2019-02-28T01:42:55.005Z,66.20
2019-02-28T01:45:24.249Z,66.00
2019-02-28T01:47:53.270Z,66.40
2019-02-28T01:50:22.306Z,66.80
2019-02-28T01:52:51.341Z,66.70
2019-02-28T01:55:20.378Z,66.90
2019-02-28T01:57:49.335Z,66.80
2019-02-28T02:00:18.658Z,67.10
2019-02-28T02:02:47.633Z,67.70
2019-02-28T02:05:17.294Z,67.30
2019-02-28T02:07:47.115Z,67.80
2019-02-28T02:10:21.277Z,68.00
2019-02-28T02:12:51.574Z,68.60
2019-02-28T02:15:20.910Z,69.00
2019-02-28T02:17:49.874Z,68.30
2019-02-28T02:20:18.978Z,68.80
2019-02-28T02:22:47.956Z,69.50
2019-02-28T02:25:16.974Z,70.00
2019-02-28T02:27:45.951Z,69.90
2019-02-28T02:30:19.839Z,70.90
2019-02-28T02:32:48.819Z,71.10
2019-02-28T02:35:18.802Z,71.90
2019-02-28T02:37:47.759Z,72.10
2019-02-28T02:40:17.068Z,71.20
2019-02-28T02:42:48.906Z,71.60
2019-02-28T02:45:16.858Z,73.10
2019-02-28T02:47:45.907Z,71.80
2019-02-28T02:50:15.508Z,72.40
2019-02-28T02:52:44.554Z,72.10
2019-02-28T02:55:14.552Z,71.90
2019-02-28T02:57:50.582Z,71.60
2019-02-28T03:00:16.861Z,71.50
2019-02-28T03:02:45.910Z,71.50
2019-02-28T03:05:15.210Z,70.90
2019-02-28T03:07:44.330Z,71.50
2019-02-28T03:10:17.616Z,71.20
2019-02-28T03:12:46.159Z,71.00
2019-02-28T03:15:25.540Z,71.30
2019-02-28T03:17:48.753Z,71.20
2019-02-28T03:20:18.438Z,70.70
2019-02-28T03:22:47.457Z,70.90
2019-02-28T03:25:18.052Z,71.30
2019-02-28T03:27:47.013Z,71.10
2019-02-28T03:30:28.467Z,71.20
2019-02-28T03:32:48.951Z,71.00
2019-02-28T03:35:19.464Z,71.40
2019-02-28T03:37:48.459Z,71.10
2019-02-28T03:40:17.559Z,71.30
2019-02-28T03:42:48.836Z,71.40
2019-02-28T03:45:22.459Z,71.70
2019-02-28T03:47:58.747Z,71.30
2019-02-28T03:50:34.889Z,71.80
2019-02-28T03:53:05.703Z,71.30
2019-02-28T03:55:40.824Z,71.20
2019-02-28T03:58:13.342Z,72.90
2019-02-28T04:00:44.078Z,71.30
2019-02-28T04:03:13.100Z,72.30
2019-02-28T04:05:42.421Z,72.10
2019-02-28T04:08:11.443Z,72.20
2019-02-28T04:10:40.427Z,72.70
2019-02-28T04:13:09.374Z,73.00
2019-02-28T04:15:38.630Z,72.30
2019-02-28T04:18:08.569Z,72.50
2019-02-28T04:20:37.987Z,72.30
2019-02-28T04:23:07.177Z,72.60
2019-02-28T04:25:36.167Z,73.70
2019-02-28T04:28:05.124Z,73.60
2019-02-28T04:30:34.575Z,73.80
2019-02-28T04:33:03.540Z,73.30
2019-02-28T04:35:32.502Z,74.40
2019-02-28T04:38:01.468Z,74.50
2019-02-28T04:40:30.434Z,74.40
2019-02-28T04:42:59.409Z,74.80
2019-02-28T04:45:28.375Z,75.20
2019-02-28T04:47:57.353Z,74.70
2019-02-28T04:50:31.313Z,75.20
2019-02-28T04:52:57.078Z,75.30
2019-02-28T04:55:26.040Z,75.50
2019-02-28T04:57:55.069Z,75.60
2019-02-28T05:00:24.047Z,76.00
2019-02-28T05:02:54.800Z,76.20
2019-02-28T05:05:23.667Z,76.20
2019-02-28T05:07:52.633Z,76.00
2019-02-28T05:10:22.356Z,76.20
2019-02-28T05:12:52.026Z,76.90
2019-02-28T05:15:21.002Z,77.00
2019-02-28T05:17:49.965Z,77.80
2019-02-28T05:20:18.943Z,78.00
2019-02-28T05:22:47.894Z,77.80
2019-02-28T05:25:18.686Z,77.80
2019-02-28T05:27:47.529Z,78.00
2019-02-28T05:30:19.388Z,78.20
2019-02-28T05:32:48.120Z,78.40
2019-02-28T05:35:17.078Z,78.70
2019-02-28T05:37:48.315Z,78.90
2019-02-28T05:40:16.860Z,79.50
2019-02-28T05:42:45.843Z,79.60
2019-02-28T05:45:15.741Z,79.80
2019-02-28T05:47:47.258Z,79.20
2019-02-28T05:50:17.170Z,81.40
2019-02-28T05:52:46.494Z,79.90
2019-02-28T05:55:15.531Z,79.50
2019-02-28T05:57:44.936Z,81.30
2019-02-28T06:00:17.234Z,79.50
2019-02-28T06:02:46.209Z,79.90
2019-02-28T06:05:15.179Z,80.50
2019-02-28T06:07:44.234Z,82.00
2019-02-28T06:10:32.654Z,81.20
2019-02-28T06:13:01.630Z,80.10
2019-02-28T06:15:30.593Z,79.90
2019-02-28T06:17:59.591Z,80.60
2019-02-28T06:20:28.552Z,79.60
2019-02-28T06:22:57.593Z,81.60
2019-02-28T06:25:26.628Z,80.40
2019-02-28T06:27:55.612Z,82.00
2019-02-28T06:30:24.573Z,82.40
2019-02-28T06:32:57.838Z,80.80
2019-02-28T06:35:24.226Z,82.10
2019-02-28T06:37:53.233Z,82.90
2019-02-28T06:40:22.268Z,84.00
2019-02-28T06:42:51.242Z,83.70
2019-02-28T06:45:20.751Z,84.70
2019-02-28T06:47:50.176Z,87.20
2019-02-28T06:50:19.350Z,87.30
2019-02-28T06:52:48.326Z,87.10
2019-02-28T06:55:27.198Z,86.90
2019-02-28T06:57:58.973Z,86.70
2019-02-28T07:00:26.866Z,87.10
2019-02-28T07:02:55.842Z,86.30
2019-02-28T07:05:26.064Z,86.60
2019-02-28T07:07:55.430Z,86.30
2019-02-28T07:10:24.405Z,85.50
2019-02-28T07:12:53.436Z,84.90
2019-02-28T07:15:24.806Z,84.30
2019-02-28T07:17:53.183Z,84.10
2019-02-28T07:20:22.150Z,84.00
2019-02-28T07:22:54.702Z,83.40
2019-02-28T07:25:21.782Z,83.50
2019-02-28T07:27:50.767Z,84.00
2019-02-28T07:30:20.662Z,83.50
2019-02-28T07:32:49.727Z,83.80
2019-02-28T07:35:18.718Z,83.60
2019-02-28T07:37:53.373Z,83.60
2019-02-28T07:40:19.008Z,83.80
2019-02-28T07:42:48.057Z,83.60
2019-02-28T07:45:17.086Z,83.20
2019-02-28T07:47:51.713Z,83.20
2019-02-28T07:50:16.982Z,82.70
2019-02-28T07:52:45.963Z,82.60
2019-02-28T07:55:20.101Z,82.30
2019-02-28T07:57:54.255Z,82.40
2019-02-28T08:00:22.140Z,81.40
2019-02-28T08:02:51.176Z,81.90
2019-02-28T08:05:20.300Z,81.90
2019-02-28T08:07:52.258Z,82.00
2019-02-28T08:10:24.883Z,80.10
2019-02-28T08:12:58.368Z,81.10
2019-02-28T08:15:32.963Z,79.70
2019-02-28T08:18:09.011Z,79.60
2019-02-28T08:20:41.161Z,80.70
2019-02-28T08:23:14.615Z,79.90
2019-02-28T08:25:47.567Z,79.50
2019-02-28T08:28:16.633Z,79.30
2019-02-28T08:30:47.325Z,79.40
2019-02-28T08:33:17.128Z,79.10
2019-02-28T08:35:46.415Z,78.40
2019-02-28T08:38:15.533Z,78.20
2019-02-28T08:40:50.490Z,78.30
2019-02-28T08:43:15.288Z,77.50
2019-02-28T08:45:44.332Z,77.60
2019-02-28T08:48:13.401Z,77.50
2019-02-28T08:50:42.442Z,77.60
2019-02-28T08:53:12.384Z,77.80
2019-02-28T08:55:44.297Z,77.70
2019-02-28T08:58:12.903Z,77.40
2019-02-28T09:00:42.082Z,77.90
2019-02-28T09:03:11.078Z,78.00
2019-02-28T09:05:40.206Z,77.90
2019-02-28T09:08:09.267Z,78.10
2019-02-28T09:10:38.321Z,77.40
2019-02-28T09:13:08.781Z,77.60
2019-02-28T09:15:37.868Z,76.90
2019-02-28T09:18:07.391Z,77.00
2019-02-28T09:20:36.614Z,77.80
2019-02-28T09:23:06.365Z,77.20
2019-02-28T09:25:35.622Z,77.30
2019-02-28T09:28:05.154Z,76.40
2019-02-28T09:30:45.806Z,77.40
2019-02-28T09:33:14.796Z,76.90
2019-02-28T09:35:46.321Z,77.40
2019-02-28T09:38:14.609Z,76.10
2019-02-28T09:40:43.601Z,76.80
2019-02-28T09:43:12.575Z,76.80
2019-02-28T09:45:41.578Z,75.90
2019-02-28T09:48:10.582Z,75.20
2019-02-28T09:50:39.551Z,75.50
2019-02-28T09:53:08.550Z,75.70
2019-02-28T09:55:38.416Z,75.00
2019-02-28T09:58:08.275Z,75.80
2019-02-28T10:00:37.399Z,75.30
2019-02-28T10:03:06.901Z,74.40
2019-02-28T10:05:39.006Z,73.80
2019-02-28T10:08:07.175Z,73.20
2019-02-28T10:10:36.359Z,72.70
2019-02-28T10:13:05.410Z,71.70
2019-02-28T10:15:34.450Z,73.70
2019-02-28T10:18:04.290Z,72.30
2019-02-28T10:20:41.332Z,72.70
2019-02-28T10:23:10.490Z,71.50
2019-02-28T10:25:43.366Z,71.40
2019-02-28T10:28:10.259Z,71.30
2019-02-28T10:30:39.238Z,71.10
2019-02-28T10:33:08.241Z,70.70
2019-02-28T10:35:37.726Z,69.70
2019-02-28T10:38:07.015Z,70.70
2019-02-28T10:40:35.993Z,70.00
2019-02-28T10:43:05.043Z,70.50
2019-02-28T10:45:34.087Z,70.70
2019-02-28T10:48:03.999Z,70.20
2019-02-28T10:50:38.008Z,70.30
2019-02-28T10:53:07.151Z,69.60
2019-02-28T10:55:36.258Z,70.10
2019-02-28T10:58:05.319Z,69.90
2019-02-28T11:00:37.873Z,69.70
2019-02-28T11:03:06.918Z,70.00
2019-02-28T11:05:41.704Z,69.00
2019-02-28T11:08:14.792Z,68.30
2019-02-28T11:10:45.499Z,68.40
2019-02-28T11:13:21.994Z,68.40
2019-02-28T11:15:51.118Z,67.60
2019-02-28T11:18:20.379Z,68.00
2019-02-28T11:20:49.431Z,67.90
2019-02-28T11:23:18.779Z,67.60
2019-02-28T11:25:47.819Z,67.70
2019-02-28T11:28:17.088Z,67.50
2019-02-28T11:30:47.783Z,66.90
2019-02-28T11:33:18.398Z,68.10
2019-02-28T11:35:47.703Z,67.20
2019-02-28T11:38:20.351Z,66.50
2019-02-28T11:40:56.738Z,66.70
2019-02-28T11:43:18.831Z,66.50
2019-02-28T11:45:48.235Z,66.30
2019-02-28T11:48:27.790Z,66.30
2019-02-28T11:50:56.893Z,66.60
2019-02-28T11:53:25.885Z,65.20
2019-02-28T11:55:54.851Z,66.50
2019-02-28T11:58:23.842Z,65.50
2019-02-28T12:00:52.885Z,65.80
2019-02-28T12:03:21.867Z,63.80
2019-02-28T12:05:51.345Z,63.70
2019-02-28T12:08:22.305Z,65.10
2019-02-28T12:10:51.449Z,63.70
2019-02-28T12:13:20.661Z,63.30
2019-02-28T12:15:49.817Z,63.10
2019-02-28T12:18:18.871Z,62.90
2019-02-28T12:20:47.868Z,62.30
2019-02-28T12:23:16.905Z,61.60
2019-02-28T12:25:45.893Z,61.40
2019-02-28T12:28:14.936Z,60.60
2019-02-28T12:30:43.906Z,61.70
2019-02-28T12:33:15.445Z,60.20
2019-02-28T12:35:43.558Z,61.60
2019-02-28T12:38:12.615Z,60.90
2019-02-28T12:40:45.698Z,60.50
2019-02-28T12:43:14.561Z,59.90
2019-02-28T12:45:47.407Z,59.70
2019-02-28T12:48:16.438Z,59.40
2019-02-28T12:50:45.505Z,59.50
2019-02-28T12:53:14.543Z,59.20
2019-02-28T12:55:43.587Z,58.50
2019-02-28T12:58:12.659Z,58.40
2019-02-28T13:00:44.725Z,58.30
2019-02-28T13:03:19.146Z,57.80
2019-02-28T13:05:48.030Z,57.90
2019-02-28T13:08:15.351Z,57.50
2019-02-28T13:10:44.324Z,57.30
2019-02-28T13:13:13.472Z,57.10
2019-02-28T13:15:45.423Z,56.90
2019-02-28T13:18:13.213Z,56.60
2019-02-28T13:20:42.435Z,56.70
2019-02-28T13:23:11.404Z,56.60
2019-02-28T13:25:40.499Z,56.60
2019-02-28T13:28:09.483Z,56.60
2019-02-28T13:30:40.251Z,56.70
2019-02-28T13:33:11.103Z,56.40
2019-02-28T13:35:46.029Z,56.80
2019-02-28T13:38:17.403Z,56.20
2019-02-28T13:40:44.859Z,56.70
2019-02-28T13:43:20.195Z,56.90
2019-02-28T13:45:44.819Z,57.10
2019-02-28T13:48:13.833Z,57.20
2019-02-28T13:50:42.863Z,56.70
2019-02-28T13:53:19.137Z,56.50
2019-02-28T13:55:43.015Z,56.70
2019-02-28T13:58:11.993Z,56.90
2019-02-28T14:00:45.553Z,56.30
2019-02-28T14:03:17.053Z,56.40
2019-02-28T14:05:45.717Z,56.50
2019-02-28T14:08:14.757Z,57.30
2019-02-28T14:10:44.079Z,56.80
2019-02-28T14:13:13.080Z,55.90
2019-02-28T14:15:43.838Z,55.80
2019-02-28T14:18:14.252Z,56.00
2019-02-28T14:20:43.303Z,56.10
2019-02-28T14:23:12.705Z,56.40
2019-02-28T14:25:41.791Z,56.30
2019-02-28T14:28:11.048Z,57.00
2019-02-28T14:30:40.044Z,56.60
2019-02-28T14:33:09.462Z,57.10
2019-02-28T14:35:38.918Z,57.30
2019-02-28T14:38:08.243Z,57.20
2019-02-28T14:40:37.312Z,57.30
2019-02-28T14:43:06.348Z,57.70
2019-02-28T14:45:44.054Z,58.00
2019-02-28T14:48:13.262Z,57.30
2019-02-28T14:50:42.409Z,57.50
2019-02-28T14:53:14.402Z,57.80
2019-02-28T14:55:42.207Z,58.00
2019-02-28T14:58:11.182Z,58.10
2019-02-28T15:00:42.453Z,58.50
2019-02-28T15:03:10.939Z,59.20
2019-02-28T15:05:43.543Z,58.70
2019-02-28T15:08:15.458Z,59.30
2019-02-28T15:10:43.287Z,59.20
2019-02-28T15:13:12.249Z,58.90
2019-02-28T15:15:41.311Z,59.40
2019-02-28T15:18:12.257Z,59.90
2019-02-28T15:20:41.119Z,60.40
2019-02-28T15:23:10.175Z,60.60
2019-02-28T15:25:39.154Z,61.80
2019-02-28T15:28:10.726Z,61.00
2019-02-28T15:30:41.022Z,61.60
2019-02-28T15:33:10.072Z,61.80
2019-02-28T15:35:39.203Z,61.90
2019-02-28T15:38:09.119Z,61.90
2019-02-28T15:40:44.391Z,62.20
2019-02-28T15:43:16.877Z,62.40
2019-02-28T15:45:44.143Z,62.20
2019-02-28T15:48:13.195Z,63.30
2019-02-28T15:50:42.174Z,63.60
2019-02-28T15:53:14.214Z,63.30
2019-02-28T15:55:41.909Z,63.40
2019-02-28T15:58:10.956Z,63.40
2019-02-28T16:00:40.096Z,63.10
2019-02-28T16:03:09.169Z,62.80
2019-02-28T16:05:42.731Z,62.90
2019-02-28T16:08:10.533Z,63.10
2019-02-28T16:10:39.815Z,63.30
2019-02-28T16:13:08.860Z,63.10
2019-02-28T16:15:37.847Z,64.80
2019-02-28T16:18:08.716Z,65.00
2019-02-28T16:20:38.280Z,65.30
2019-02-28T16:23:07.620Z,65.80
2019-02-28T16:25:38.207Z,65.90
2019-02-28T16:28:10.275Z,65.60
2019-02-28T16:30:39.975Z,66.40
2019-02-28T16:33:09.073Z,66.30
2019-02-28T16:35:38.049Z,67.30
2019-02-28T16:38:09.901Z,67.10
2019-02-28T16:40:37.739Z,67.30
2019-02-28T16:43:06.804Z,67.70
2019-02-28T16:45:40.482Z,67.40
2019-02-28T16:48:08.311Z,67.60
2019-02-28T16:50:37.550Z,67.80
2019-02-28T16:53:06.690Z,68.70
2019-02-28T16:55:35.666Z,68.40
2019-02-28T16:58:04.736Z,69.10
2019-02-28T17:00:33.866Z,69.40
2019-02-28T17:03:03.958Z,70.30
2019-02-28T17:05:33.672Z,70.40
2019-02-28T17:08:03.736Z,70.30
2019-02-28T17:10:40.125Z,70.20
2019-02-28T17:13:12.408Z,70.60
2019-02-28T17:15:55.780Z,70.60
2019-02-28T17:18:30.621Z,70.90
2019-02-28T17:20:59.680Z,71.20
2019-02-28T17:23:28.660Z,71.70
2019-02-28T17:25:57.706Z,71.60
2019-02-28T17:28:31.335Z,71.10
2019-02-28T17:31:18.223Z,71.00
2019-02-28T17:33:47.945Z,70.90
2019-02-28T17:36:17.056Z,72.50
2019-02-28T17:39:06.774Z,70.80
2019-02-28T17:41:37.155Z,71.30
2019-02-28T17:44:24.508Z,71.20
2019-02-28T17:46:56.906Z,71.40
2019-02-28T17:49:38.473Z,71.60
2019-02-28T17:52:30.559Z,72.70
2019-02-28T17:55:19.136Z,72.00
2019-02-28T17:57:53.895Z,72.60
2019-02-28T18:00:57.946Z,72.50
2019-02-28T18:03:48.143Z,72.40
2019-02-28T18:06:30.636Z,72.30
2019-02-28T18:24:10.979Z,72.60
2019-02-28T18:26:48.796Z,72.90
2019-02-28T18:29:26.698Z,73.10
2019-02-28T18:31:57.136Z,73.10
2019-02-28T18:34:26.354Z,72.90
2019-02-28T18:36:55.438Z,72.70
2019-02-28T18:39:25.445Z,72.70
2019-02-28T18:41:54.730Z,72.60
2019-02-28T18:44:23.792Z,72.80
2019-02-28T18:46:52.824Z,73.40
2019-02-28T18:49:21.846Z,73.20
2019-02-28T18:51:50.924Z,73.70
2019-02-28T18:54:20.084Z,73.90
2019-02-28T18:56:49.059Z,74.10
2019-02-28T18:59:18.055Z,74.60
2019-02-28T19:01:47.179Z,74.60
2019-02-28T19:04:16.193Z,75.00
2019-02-28T19:06:45.158Z,75.00
2019-02-28T19:09:19.613Z,75.30
2019-02-28T19:11:48.659Z,75.40
2019-02-28T19:14:17.731Z,75.80
2019-02-28T19:16:46.715Z,76.00
2019-02-28T19:19:15.698Z,75.70
2019-02-28T19:21:44.766Z,76.70
2019-02-28T19:24:13.752Z,76.60
2019-02-28T19:26:42.727Z,76.90
2019-02-28T19:29:11.736Z,77.50
2019-02-28T19:31:40.792Z,78.20
2019-02-28T19:34:09.859Z,78.60
2019-02-28T19:36:38.882Z,79.20
2019-02-28T19:39:07.987Z,79.70
2019-02-28T19:41:36.992Z,80.10
2019-02-28T19:44:06.019Z,80.60
2019-02-28T19:46:34.994Z,80.50
2019-02-28T19:49:04.076Z,79.90
2019-02-28T19:51:33.058Z,80.60
2019-02-28T19:54:02.050Z,81.00
2019-02-28T19:56:31.094Z,83.00
2019-02-28T19:59:00.115Z,83.40
2019-02-28T20:01:29.093Z,82.70
2019-02-28T20:03:58.168Z,83.60
2019-02-28T20:06:27.147Z,83.60
2019-02-28T20:08:56.166Z,85.80
2019-02-28T20:11:25.215Z,87.20
2019-02-28T20:13:54.208Z,88.50
2019-02-28T20:16:23.263Z,89.10
2019-02-28T20:18:52.239Z,90.10
2019-02-28T20:21:21.308Z,91.40
2019-02-28T20:23:50.446Z,91.40
2019-02-28T20:26:19.439Z,92.00
2019-02-28T20:28:48.422Z,92.00
2019-02-28T20:31:17.495Z,92.10
2019-02-28T20:33:46.479Z,92.80
2019-02-28T20:36:15.492Z,92.60
2019-02-28T20:38:44.563Z,93.20
2019-02-28T20:41:13.555Z,93.40
2019-02-28T20:43:42.546Z,93.40
2019-02-28T20:46:11.562Z,93.50
2019-02-28T20:48:40.543Z,94.10
2019-02-28T20:51:09.544Z,94.00
2019-02-28T20:53:38.582Z,94.50
2019-02-28T20:56:07.558Z,94.60
2019-02-28T20:58:36.553Z,94.80
2019-02-28T21:01:05.748Z,95.00
2019-02-28T21:03:34.735Z,94.70
2019-02-28T21:06:03.738Z,95.30
2019-02-28T21:08:32.738Z,95.00
2019-02-28T21:11:01.816Z,94.80
2019-02-28T21:13:30.865Z,94.60
2019-02-28T21:15:59.916Z,95.40
2019-02-28T21:18:28.973Z,94.90
2019-02-28T21:20:57.950Z,95.10
2019-02-28T21:23:26.939Z,94.60
2019-02-28T21:25:57.385Z,94.90
2019-02-28T21:28:26.489Z,95.20
2019-02-28T21:30:55.478Z,95.20
2019-02-28T21:33:24.462Z,94.80
2019-02-28T21:35:53.458Z,94.80
2019-02-28T21:38:22.539Z,94.30
2019-02-28T21:40:51.659Z,94.30
2019-02-28T21:43:20.649Z,94.60
2019-02-28T21:45:49.737Z,94.50
2019-02-28T21:48:18.731Z,94.80
2019-02-28T21:50:47.717Z,94.30
2019-02-28T21:53:16.775Z,94.00
2019-02-28T21:55:45.830Z,94.90
2019-02-28T21:58:14.815Z,94.50
2019-02-28T22:00:43.871Z,94.10
2019-02-28T22:03:12.935Z,94.90
2019-02-28T22:05:41.939Z,94.30
2019-02-28T22:08:10.931Z,94.80
2019-02-28T22:10:39.917Z,94.80
2019-02-28T22:13:08.903Z,94.00
2019-02-28T22:15:37.912Z,94.30
2019-02-28T22:18:06.882Z,94.30
2019-02-28T22:20:36.802Z,94.70
2019-02-28T22:23:05.970Z,95.00
2019-02-28T22:25:34.967Z,94.90
2019-02-28T22:28:04.007Z,95.80
2019-02-28T22:30:34.642Z,95.70
2019-02-28T22:33:05.258Z,95.70
2019-02-28T22:35:35.891Z,95.50
2019-02-28T22:38:04.951Z,95.70
2019-02-28T22:40:33.941Z,95.70
2019-02-28T22:43:02.908Z,96.00
2019-02-28T22:45:31.886Z,96.30
2019-02-28T22:48:00.890Z,95.90
2019-02-28T22:50:29.851Z,96.10
2019-02-28T22:52:58.919Z,96.70
2019-02-28T22:55:27.894Z,96.70
2019-02-28T22:57:56.973Z,96.80
2019-02-28T23:00:52.050Z,96.80
2019-02-28T23:03:21.472Z,96.60
2019-02-28T23:05:50.431Z,96.60
2019-02-28T23:08:19.489Z,96.70
2019-02-28T23:10:48.462Z,96.80
2019-02-28T23:13:17.451Z,97.20
2019-02-28T23:15:46.421Z,97.80
2019-02-28T23:18:15.423Z,98.40
2019-02-28T23:20:44.531Z,99.00
2019-02-28T23:23:13.521Z,99.40
2019-02-28T23:25:42.483Z,99.90
2019-02-28T23:28:23.169Z,99.90
2019-02-28T23:31:01.050Z,99.90
2019-02-28T23:33:30.038Z,99.90
2019-02-28T23:35:59.075Z,99.90
2019-02-28T23:38:28.069Z,99.90
2019-02-28T23:40:57.105Z,99.90
2019-02-28T23:43:26.090Z,99.90
2019-02-28T23:45:55.078Z,99.90
2019-02-28T23:48:24.066Z,99.90
2019-02-28T23:50:53.044Z,99.90
2019-02-28T23:53:22.040Z,99.90
2019-02-28T23:55:51.021Z,99.90
2019-02-28T23:58:20.004Z,99.90
